Time;durP1;ratioP1;P1;durP2;ratioP2;P2;SDS_P1;SDS_P2;PMS_P1;PMS_P2;Temp;Humidity;BMP_temperature;BMP_pressure;BME280_temperature;BME280_humidity;BME280_pressure;Samples;Min_cycle;Max_cycle;Signal;HPM_P1;HPM_P2
2021/05/16 00:01:31;;;;;;;5.85;4.20;;;24.90;44.10;;;;;;6178984;28;80435;-65
2021/05/16 00:04:31;;;;;;;4.95;3.65;;;24.80;44.00;;;;;;6162473;28;82176;-65
2021/05/16 00:07:32;;;;;;;4.40;3.63;;;24.80;43.90;;;;;;6177256;28;80546;-65
2021/05/16 00:10:32;;;;;;;5.90;3.75;;;24.80;44.10;;;;;;6177520;28;80481;-65
2021/05/16 00:13:33;;;;;;;5.28;3.80;;;24.80;44.20;;;;;;6177852;28;80485;-65
2021/05/16 00:16:33;;;;;;;4.97;3.85;;;24.90;45.00;;;;;;6179442;28;81217;-66
2021/05/16 00:19:34;;;;;;;5.22;3.67;;;24.80;44.80;;;;;;6177700;28;80280;-66
2021/05/16 00:22:34;;;;;;;4.93;3.85;;;24.80;44.70;;;;;;6175165;28;81706;-66
2021/05/16 00:25:35;;;;;;;5.97;3.67;;;24.80;44.00;;;;;;6179973;28;81374;-66
2021/05/16 00:28:35;;;;;;;4.88;3.88;;;24.80;43.90;;;;;;6170409;28;80479;-68
2021/05/16 00:31:36;;;;;;;6.13;3.90;;;24.90;43.90;;;;;;6176115;28;80362;-67
2021/05/16 00:34:37;;;;;;;7.43;3.80;;;24.80;44.00;;;;;;6173931;28;83494;-67
2021/05/16 00:37:37;;;;;;;5.93;3.97;;;24.80;44.20;;;;;;6169074;28;81498;-66
2021/05/16 00:40:38;;;;;;;6.35;4.07;;;24.80;44.50;;;;;;6169637;28;80556;-65
2021/05/16 00:43:40;;;;;;;4.78;3.38;;;24.80;44.30;;;;;;6175068;28;80951;-64
2021/05/16 00:46:40;;;;;;;5.57;3.80;;;24.80;44.60;;;;;;6169848;28;80363;-65
2021/05/16 00:49:41;;;;;;;4.30;3.25;;;24.80;44.20;;;;;;6176125;28;83169;-66
2021/05/16 00:52:41;;;;;;;4.50;3.45;;;24.80;44.20;;;;;;6168430;28;80491;-66
2021/05/16 00:55:42;;;;;;;5.22;3.05;;;24.80;44.80;;;;;;6177010;28;83001;-66
2021/05/16 00:58:43;;;;;;;6.95;3.33;;;24.80;44.40;;;;;;6175395;28;80822;-67
2021/05/16 01:01:43;;;;;;;3.78;3.10;;;24.90;44.40;;;;;;6178264;28;80705;-66
2021/05/16 01:04:44;;;;;;;6.88;3.83;;;24.80;44.30;;;;;;6174725;28;80281;-66
2021/05/16 01:07:45;;;;;;;5.93;3.40;;;24.80;44.50;;;;;;6166217;28;82311;-66
2021/05/16 01:10:45;;;;;;;8.88;4.13;;;24.80;43.80;;;;;;6167363;28;81659;-66
2021/05/16 01:13:49;;;;;;;4.45;3.10;;;24.80;43.80;;;;;;6181698;28;84387;-66
2021/05/16 01:16:50;;;;;;;4.70;3.08;;;24.80;44.20;;;;;;6169494;28;80324;-66
2021/05/16 01:19:51;;;;;;;5.60;3.72;;;24.80;43.50;;;;;;6153478;28;80852;-67
2021/05/16 01:22:51;;;;;;;4.70;3.42;;;24.80;43.80;;;;;;6174981;28;82697;-67
2021/05/16 01:25:52;;;;;;;4.80;3.30;;;24.80;43.90;;;;;;6168953;28;83772;-67
2021/05/16 01:28:52;;;;;;;5.68;3.50;;;24.80;44.10;;;;;;6162061;28;83279;-67
2021/05/16 01:31:53;;;;;;;15.48;3.38;;;24.80;43.90;;;;;;6168560;28;80489;-67
2021/05/16 01:34:54;;;;;;;4.25;3.45;;;24.80;43.90;;;;;;6179368;28;81536;-67
2021/05/16 01:37:54;;;;;;;4.88;3.20;;;24.80;44.10;;;;;;6175437;28;81363;-66
2021/05/16 01:40:55;;;;;;;5.47;3.60;;;24.80;43.70;;;;;;6177950;28;80662;-65
2021/05/16 01:44:11;;;;;;;3.67;3.00;;;24.80;43.60;;;;;;6169033;28;81603;-66
2021/05/16 01:47:12;;;;;;;4.55;3.42;;;24.80;44.20;;;;;;6171312;28;81781;-66
2021/05/16 01:50:13;;;;;;;4.72;3.20;;;24.90;43.60;;;;;;6171809;28;80997;-66
2021/05/16 01:53:14;;;;;;;4.60;3.38;;;24.90;43.70;;;;;;6175549;28;81796;-66
2021/05/16 01:56:15;;;;;;;6.72;3.92;;;24.80;44.00;;;;;;6173393;28;80536;-66
2021/05/16 01:59:16;;;;;;;5.28;3.70;;;24.80;43.90;;;;;;6179313;28;80666;-66
2021/05/16 02:02:17;;;;;;;4.82;3.15;;;24.80;43.90;;;;;;6161517;28;81346;-66
2021/05/16 02:05:17;;;;;;;4.25;3.50;;;24.80;43.70;;;;;;6175907;28;83106;-66
2021/05/16 02:08:21;;;;;;;6.47;3.58;;;24.80;43.90;;;;;;6177358;28;80630;-67
2021/05/16 02:11:23;;;;;;;4.40;3.10;;;24.80;44.30;;;;;;6174824;28;81934;-67
2021/05/16 02:14:28;;;;;;;4.50;3.10;;;24.80;44.10;;;;;;6165843;28;82982;-67
2021/05/16 02:17:30;;;;;;;4.95;3.08;;;24.80;44.00;;;;;;6172968;28;83371;-67
2021/05/16 02:20:31;;;;;;;5.72;3.30;;;24.80;44.40;;;;;;6165664;28;80451;-67
2021/05/16 02:23:32;;;;;;;4.07;2.88;;;24.80;45.30;;;;;;6168085;28;82750;-66
2021/05/16 02:26:34;;;;;;;3.47;2.90;;;24.80;44.60;;;;;;6168583;28;80799;-67
2021/05/16 02:29:35;;;;;;;4.22;3.17;;;24.80;45.70;;;;;;6169503;28;90020;-68
2021/05/16 02:32:36;;;;;;;5.30;2.95;;;24.80;45.40;;;;;;6173905;28;82340;-67
2021/05/16 02:35:37;;;;;;;3.65;2.70;;;24.80;45.50;;;;;;6164205;28;83370;-68
2021/05/16 02:38:40;;;;;;;3.65;2.67;;;24.80;45.10;;;;;;6174009;28;83555;-68
2021/05/16 02:41:41;;;;;;;4.63;2.95;;;24.80;44.20;;;;;;6174065;28;82001;-68
2021/05/16 02:44:42;;;;;;;4.80;3.05;;;24.80;45.40;;;;;;6176822;28;83299;-68
2021/05/16 02:47:43;;;;;;;5.00;3.05;;;24.80;45.10;;;;;;6169768;28;82626;-68
2021/05/16 02:50:45;;;;;;;3.92;3.08;;;24.80;45.50;;;;;;6164366;28;82712;-70
2021/05/16 02:53:46;;;;;;;3.50;2.90;;;24.80;45.00;;;;;;6194232;28;81825;-68
2021/05/16 02:56:47;;;;;;;3.92;2.85;;;24.80;45.10;;;;;;6177525;28;80653;-68
2021/05/16 02:59:48;;;;;;;3.65;2.58;;;24.80;44.70;;;;;;6176150;28;82331;-67
2021/05/16 03:02:49;;;;;;;3.90;2.78;;;24.80;45.50;;;;;;6177417;28;83124;-67
2021/05/16 03:05:49;;;;;;;4.40;3.03;;;24.80;44.80;;;;;;6183197;28;80369;-67
2021/05/16 03:08:51;;;;;;;3.78;2.88;;;24.80;44.30;;;;;;6190682;28;81329;-67
2021/05/16 03:11:57;;;;;;;3.70;2.75;;;24.80;43.70;;;;;;6179368;28;80461;-67
2021/05/16 03:14:57;;;;;;;4.50;2.90;;;24.80;43.80;;;;;;6177410;28;82294;-67
2021/05/16 03:17:59;;;;;;;4.45;3.08;;;24.80;44.00;;;;;;6185198;28;83211;-67
2021/05/16 03:21:01;;;;;;;3.90;2.78;;;24.80;44.00;;;;;;6175266;28;82571;-67
2021/05/16 03:24:03;;;;;;;4.05;2.78;;;24.70;44.20;;;;;;6194123;28;83218;-67
2021/05/16 03:27:03;;;;;;;3.63;2.95;;;24.80;44.10;;;;;;6180762;28;82952;-66
2021/05/16 03:30:04;;;;;;;5.18;2.72;;;24.70;44.40;;;;;;6175742;28;80656;-67
2021/05/16 03:33:04;;;;;;;4.00;2.90;;;24.70;44.40;;;;;;6169795;28;80436;-67
2021/05/16 03:36:05;;;;;;;3.63;2.50;;;24.70;44.70;;;;;;6170693;28;81197;-67
2021/05/16 03:39:05;;;;;;;2.38;2.05;;;24.70;44.00;;;;;;6164054;28;80591;-66
2021/05/16 03:42:07;;;;;;;3.05;2.50;;;24.80;43.90;;;;;;6171712;28;82661;-67
2021/05/16 03:45:08;;;;;;;4.10;3.00;;;24.70;43.80;;;;;;6175275;28;80504;-67
2021/05/16 03:48:08;;;;;;;6.95;2.63;;;24.80;44.00;;;;;;6177911;28;81141;-67
2021/05/16 03:51:10;;;;;;;3.50;2.95;;;24.80;44.20;;;;;;6168841;28;80308;-67
2021/05/16 03:54:11;;;;;;;4.40;2.60;;;24.80;43.80;;;;;;6172271;28;83481;-67
2021/05/16 03:57:11;;;;;;;3.10;2.65;;;24.80;44.50;;;;;;6174607;28;80615;-67
2021/05/16 04:00:12;;;;;;;3.50;3.08;;;24.80;43.90;;;;;;6172353;28;80457;-68
2021/05/16 04:03:16;;;;;;;4.20;2.90;;;24.70;44.00;;;;;;6173782;28;80347;-67
2021/05/16 04:06:17;;;;;;;5.10;2.45;;;24.80;45.50;;;;;;6173973;28;80477;-67
2021/05/16 04:09:17;;;;;;;2.78;2.42;;;24.70;44.20;;;;;;6174872;28;81410;-67
2021/05/16 04:12:18;;;;;;;3.42;2.53;;;24.80;45.10;;;;;;6175723;28;80341;-67
2021/05/16 04:15:18;;;;;;;2.83;2.30;;;24.80;45.30;;;;;;6176613;28;81313;-68
2021/05/16 04:18:19;;;;;;;4.50;2.83;;;24.70;45.70;;;;;;6179513;28;80544;-67
2021/05/16 04:21:19;;;;;;;3.60;2.63;;;24.70;45.50;;;;;;6177311;28;81013;-68
2021/05/16 04:24:20;;;;;;;4.93;2.60;;;24.70;44.00;;;;;;6176104;28;80322;-67
2021/05/16 04:27:20;;;;;;;2.50;2.08;;;24.80;44.00;;;;;;6175473;28;80736;-67
2021/05/16 04:30:21;;;;;;;3.45;2.50;;;24.80;44.20;;;;;;6168379;28;81017;-68
2021/05/16 04:33:22;;;;;;;3.63;2.58;;;24.80;44.20;;;;;;6165376;28;80555;-65
2021/05/16 04:36:22;;;;;;;3.30;2.50;;;24.80;44.40;;;;;;6175216;28;83247;-68
2021/05/16 04:39:22;;;;;;;3.63;2.47;;;24.80;44.40;;;;;;6177467;28;80630;-69
2021/05/16 04:42:23;;;;;;;3.83;2.45;;;24.80;44.50;;;;;;6178361;28;80691;-69
2021/05/16 04:45:23;;;;;;;3.53;2.67;;;24.80;44.90;;;;;;6175596;28;80616;-64
2021/05/16 04:48:24;;;;;;;6.57;2.78;;;24.80;45.10;;;;;;6175277;28;83213;-66
2021/05/16 04:51:25;;;;;;;9.05;3.03;;;24.90;44.90;;;;;;6168327;28;81716;-68
2021/05/16 04:54:25;;;;;;;9.00;2.60;;;24.90;44.90;;;;;;6163246;28;81070;-68
2021/05/16 04:57:26;;;;;;;5.47;2.15;;;24.80;44.50;;;;;;6178484;28;80681;-69
2021/05/16 05:00:26;;;;;;;5.90;2.40;;;24.80;44.50;;;;;;6171351;28;83339;-69
2021/05/16 05:03:27;;;;;;;5.20;2.70;;;24.80;44.80;;;;;;6169385;28;80452;-68
2021/05/16 05:06:27;;;;;;;3.30;2.40;;;24.80;45.50;;;;;;6174129;28;81393;-68
2021/05/16 05:09:28;;;;;;;2.80;2.38;;;24.80;46.30;;;;;;6174851;28;80513;-68
2021/05/16 05:12:28;;;;;;;5.60;3.20;;;24.90;46.80;;;;;;6175744;28;80606;-68
2021/05/16 05:15:29;;;;;;;8.70;2.85;;;24.90;45.90;;;;;;6175062;28;80441;-67
2021/05/16 05:18:31;;;;;;;6.70;2.70;;;24.90;46.30;;;;;;6175759;28;80357;-68
2021/05/16 05:21:32;;;;;;;7.78;2.97;;;24.90;46.90;;;;;;6172239;28;80509;-69
2021/05/16 05:24:32;;;;;;;10.45;3.55;;;24.80;46.90;;;;;;6171532;28;81206;-68
2021/05/16 05:27:33;;;;;;;11.82;2.45;;;24.90;47.10;;;;;;6175200;28;80511;-68
2021/05/16 05:30:33;;;;;;;5.72;2.65;;;24.90;46.70;;;;;;6171371;28;81662;-68
2021/05/16 05:33:34;;;;;;;3.88;2.67;;;24.90;47.40;;;;;;6177752;28;81452;-68
2021/05/16 05:36:34;;;;;;;10.80;2.78;;;24.90;47.70;;;;;;6176922;28;80756;-68
2021/05/16 05:39:35;;;;;;;4.45;2.97;;;24.90;47.60;;;;;;6177401;28;80138;-67
2021/05/16 05:42:35;;;;;;;4.03;2.80;;;24.90;47.90;;;;;;6173530;28;80537;-68
2021/05/16 05:45:37;;;;;;;9.65;3.53;;;25.00;47.30;;;;;;6177298;28;81665;-69
2021/05/16 05:48:38;;;;;;;6.07;3.47;;;25.00;47.30;;;;;;6178319;28;80343;-68
2021/05/16 05:51:38;;;;;;;4.57;3.10;;;25.00;47.30;;;;;;6173191;28;80627;-69
2021/05/16 05:54:39;;;;;;;5.57;3.10;;;25.00;47.20;;;;;;6174915;28;80447;-68
2021/05/16 05:57:41;;;;;;;5.00;2.80;;;25.00;47.20;;;;;;6161014;28;81617;-69
2021/05/16 06:00:42;;;;;;;5.05;3.50;;;25.00;46.90;;;;;;6178722;28;80707;-67
2021/05/16 06:03:44;;;;;;;3.78;2.67;;;25.00;46.90;;;;;;6171276;28;82620;-67
2021/05/16 06:06:45;;;;;;;4.72;2.95;;;25.00;47.10;;;;;;6174582;28;80260;-69
2021/05/16 06:09:45;;;;;;;5.70;3.15;;;25.00;47.10;;;;;;6172959;28;81446;-69
2021/05/16 06:12:46;;;;;;;4.38;2.55;;;25.00;46.90;;;;;;6173788;28;81729;-69
2021/05/16 06:15:46;;;;;;;11.13;2.88;;;25.00;46.60;;;;;;6172400;28;80324;-67
2021/05/16 06:18:48;;;;;;;3.92;2.33;;;25.10;46.80;;;;;;6171307;28;80598;-68
2021/05/16 06:21:49;;;;;;;6.07;2.63;;;25.00;46.80;;;;;;6170032;28;80675;-68
2021/05/16 06:24:49;;;;;;;6.78;3.17;;;25.10;47.30;;;;;;6171513;28;80576;-69
2021/05/16 06:27:50;;;;;;;4.90;2.75;;;25.10;47.40;;;;;;6175431;28;81448;-69
2021/05/16 06:30:51;;;;;;;5.13;2.55;;;25.10;47.50;;;;;;6174528;28;80366;-65
2021/05/16 06:33:51;;;;;;;4.93;2.67;;;25.10;47.40;;;;;;6171416;28;81661;-68
2021/05/16 06:36:52;;;;;;;8.55;2.83;;;25.10;46.90;;;;;;6180826;28;80441;-70
2021/05/16 06:39:52;;;;;;;8.82;3.10;;;25.10;47.00;;;;;;6179492;28;80280;-67
2021/05/16 06:42:54;;;;;;;5.30;2.53;;;25.10;47.10;;;;;;6182155;28;80471;-68
2021/05/16 06:45:54;;;;;;;3.47;2.20;;;25.10;47.10;;;;;;6174275;28;80490;-69
2021/05/16 06:48:55;;;;;;;7.57;2.60;;;25.10;46.90;;;;;;6181957;28;80425;-68
2021/05/16 06:51:55;;;;;;;3.65;2.45;;;25.10;46.90;;;;;;6176503;28;80203;-69
2021/05/16 06:54:56;;;;;;;7.15;2.70;;;25.10;46.80;;;;;;6178730;28;80305;-67
2021/05/16 06:57:56;;;;;;;4.45;2.30;;;25.10;46.60;;;;;;6178595;28;80568;-68
2021/05/16 07:00:57;;;;;;;6.30;2.13;;;25.10;46.80;;;;;;6171786;28;80378;-64
2021/05/16 07:03:57;;;;;;;6.65;2.15;;;25.10;46.70;;;;;;6179719;28;84823;-65
2021/05/16 07:06:58;;;;;;;2.95;2.10;;;25.10;45.30;;;;;;6169168;28;80291;-65
2021/05/16 07:09:58;;;;;;;2.33;1.83;;;25.00;45.10;;;;;;6173414;28;80167;-64
2021/05/16 07:12:59;;;;;;;3.35;2.08;;;24.90;44.90;;;;;;6175906;28;80791;-65
2021/05/16 07:15:59;;;;;;;2.72;1.75;;;24.90;44.60;;;;;;6169860;28;81189;-66
2021/05/16 07:19:02;;;;;;;6.63;2.00;;;24.90;44.80;;;;;;6170711;28;80643;-65
2021/05/16 07:22:02;;;;;;;5.28;1.80;;;24.90;44.60;;;;;;6179454;28;82625;-67
2021/05/16 07:25:03;;;;;;;3.40;1.90;;;24.90;44.30;;;;;;6176847;28;83779;-66
2021/05/16 07:28:03;;;;;;;3.25;1.80;;;24.90;44.30;;;;;;6178726;28;80439;-66
2021/05/16 07:31:04;;;;;;;2.88;1.80;;;24.80;44.00;;;;;;6180918;28;81018;-65
2021/05/16 07:34:04;;;;;;;2.35;2.08;;;24.80;44.20;;;;;;6177560;28;80576;-66
2021/05/16 07:37:05;;;;;;;4.80;2.40;;;24.70;43.80;;;;;;6178635;28;81380;-65
2021/05/16 07:40:05;;;;;;;2.40;1.65;;;24.70;44.10;;;;;;6179600;28;80322;-67
2021/05/16 07:43:06;;;;;;;5.25;1.92;;;24.70;44.10;;;;;;6175404;28;80678;-63
2021/05/16 07:46:06;;;;;;;3.83;1.60;;;24.70;44.50;;;;;;6178926;28;80454;-66
2021/05/16 07:49:07;;;;;;;2.35;1.80;;;24.70;43.70;;;;;;6175975;28;80628;-66
2021/05/16 07:52:07;;;;;;;5.53;3.13;;;24.60;43.60;;;;;;6176646;28;80339;-64
2021/05/16 07:55:08;;;;;;;3.20;2.40;;;24.60;43.60;;;;;;6178796;28;80259;-66
2021/05/16 07:58:08;;;;;;;8.07;2.10;;;24.60;43.10;;;;;;6169277;28;80541;-67
2021/05/16 08:01:09;;;;;;;2.85;2.28;;;24.60;43.50;;;;;;6171852;28;80861;-69
2021/05/16 08:04:10;;;;;;;5.07;1.95;;;24.60;43.30;;;;;;6176019;28;83174;-66
2021/05/16 08:07:10;;;;;;;5.57;2.58;;;24.60;43.30;;;;;;6176609;28;80165;-65
2021/05/16 08:10:11;;;;;;;4.13;2.10;;;24.60;43.30;;;;;;6176592;28;81894;-65
2021/05/16 08:13:11;;;;;;;2.85;1.80;;;24.60;43.40;;;;;;6168204;28;80897;-67
2021/05/16 08:16:12;;;;;;;2.47;1.65;;;24.50;43.60;;;;;;6168852;28;80923;-65
2021/05/16 08:19:13;;;;;;;5.53;1.63;;;24.50;43.60;;;;;;6176483;28;82144;-65
2021/05/16 08:22:13;;;;;;;1.80;1.33;;;24.40;43.70;;;;;;6190447;28;80617;-66
2021/05/16 08:25:14;;;;;;;3.00;1.70;;;24.40;43.70;;;;;;6162005;28;82400;-66
2021/05/16 08:28:17;;;;;;;3.88;1.67;;;24.40;44.10;;;;;;6180868;28;80533;-66
2021/05/16 08:31:18;;;;;;;3.42;1.67;;;24.40;43.70;;;;;;6175759;28;81979;-65
2021/05/16 08:34:19;;;;;;;2.08;1.50;;;24.50;43.70;;;;;;6163925;28;82994;-66
2021/05/16 08:37:19;;;;;;;3.83;1.65;;;24.40;43.70;;;;;;6173690;28;80738;-65
2021/05/16 08:40:20;;;;;;;3.42;1.40;;;24.50;43.80;;;;;;6163370;28;80460;-67
2021/05/16 08:43:20;;;;;;;3.03;1.50;;;24.40;43.70;;;;;;6175794;28;80360;-67
2021/05/16 08:46:21;;;;;;;3.55;1.55;;;24.40;44.70;;;;;;6175033;28;83679;-68
2021/05/16 08:49:22;;;;;;;3.33;1.63;;;24.50;44.10;;;;;;6169696;28;80314;-65
2021/05/16 08:52:22;;;;;;;1.80;1.52;;;24.50;44.10;;;;;;6174009;28;80700;-65
2021/05/16 08:55:23;;;;;;;3.58;2.20;;;24.60;44.10;;;;;;6174437;28;80842;-65
2021/05/16 08:58:23;;;;;;;4.15;2.22;;;24.50;44.90;;;;;;6173960;28;80654;-65
2021/05/16 09:01:24;;;;;;;2.72;1.52;;;24.60;44.60;;;;;;6175475;28;80422;-65
2021/05/16 09:04:25;;;;;;;6.00;2.20;;;24.50;45.90;;;;;;6166837;28;81145;-66
2021/05/16 09:07:26;;;;;;;15.73;2.00;;;24.60;47.40;;;;;;6174301;28;80522;-65
2021/05/16 09:10:29;;;;;;;4.22;1.85;;;24.60;47.30;;;;;;6180134;28;80891;-65
2021/05/16 09:13:30;;;;;;;2.92;2.00;;;24.60;45.50;;;;;;6173853;28;88545;-65
2021/05/16 09:16:31;;;;;;;1.90;1.67;;;24.60;45.50;;;;;;6173366;28;80329;-65
2021/05/16 09:19:31;;;;;;;2.08;1.60;;;24.60;45.50;;;;;;6175625;28;81002;-66
2021/05/16 09:22:32;;;;;;;5.18;1.98;;;24.60;45.70;;;;;;6166326;28;80638;-66
2021/05/16 09:25:33;;;;;;;4.47;2.40;;;24.60;45.90;;;;;;6170375;28;81317;-67
2021/05/16 09:28:34;;;;;;;11.27;5.05;;;24.70;46.00;;;;;;6175875;28;81775;-63
2021/05/16 09:31:35;;;;;;;9.43;7.03;;;24.70;47.10;;;;;;6174711;28;82509;-65
2021/05/16 09:34:38;;;;;;;13.77;8.43;;;24.70;46.90;;;;;;6160935;28;80954;-64
2021/05/16 09:37:39;;;;;;;18.35;12.13;;;24.60;48.60;;;;;;6169921;28;80892;-66
2021/05/16 09:40:40;;;;;;;36.05;26.08;;;24.70;50.40;;;;;;6166135;28;83329;-66
2021/05/16 09:43:41;;;;;;;38.25;28.15;;;24.80;51.00;;;;;;6163183;28;84871;-65
2021/05/16 09:46:42;;;;;;;43.85;36.08;;;24.90;51.00;;;;;;6183345;28;83154;-65
2021/05/16 09:49:42;;;;;;;46.63;38.20;;;24.90;51.00;;;;;;6164458;28;85720;-66
2021/05/16 09:52:43;;;;;;;61.90;46.83;;;24.90;50.70;;;;;;6179896;28;85750;-66
2021/05/16 09:55:43;;;;;;;53.45;43.13;;;24.90;50.50;;;;;;6167666;28;84125;-66
2021/05/16 09:58:44;;;;;;;45.95;38.55;;;24.90;50.30;;;;;;6168641;28;84152;-65
2021/05/16 10:01:45;;;;;;;41.13;35.72;;;24.90;50.40;;;;;;6164939;28;83081;-66
2021/05/16 10:04:45;;;;;;;37.75;32.42;;;24.90;50.50;;;;;;6164972;28;84193;-65
2021/05/16 10:07:46;;;;;;;35.53;30.08;;;24.90;50.30;;;;;;6170451;28;83534;-69
2021/05/16 10:10:46;;;;;;;32.97;26.98;;;24.90;50.20;;;;;;6175344;28;83207;-68
2021/05/16 10:13:47;;;;;;;27.50;24.15;;;24.90;50.10;;;;;;6177655;28;83263;-68
2021/05/16 10:16:47;;;;;;;29.42;21.63;;;25.00;49.90;;;;;;6171082;28;84248;-67
2021/05/16 10:19:48;;;;;;;28.75;20.55;;;25.00;49.80;;;;;;6180923;28;84949;-67
2021/05/16 10:22:48;;;;;;;21.52;19.25;;;25.00;49.60;;;;;;6171130;28;83119;-68
2021/05/16 10:25:49;;;;;;;23.60;18.35;;;25.00;49.50;;;;;;6191752;28;83172;-66
2021/05/16 10:28:49;;;;;;;19.98;16.00;;;25.00;49.30;;;;;;6173197;28;85172;-69
2021/05/16 10:31:50;;;;;;;17.42;14.48;;;25.10;49.10;;;;;;6170684;28;83983;-67
2021/05/16 10:34:51;;;;;;;18.25;11.55;;;25.00;49.10;;;;;;6177669;28;83100;-67
2021/05/16 10:37:53;;;;;;;15.88;11.45;;;25.00;49.20;;;;;;6176849;28;83243;-67
2021/05/16 10:40:53;;;;;;;17.13;10.95;;;25.00;49.40;;;;;;6176675;28;84346;-66
2021/05/16 10:43:54;;;;;;;17.45;10.13;;;25.00;49.40;;;;;;6166566;28;83249;-65
2021/05/16 10:46:54;;;;;;;18.73;10.10;;;25.00;49.30;;;;;;6166643;28;83675;-64
2021/05/16 10:49:55;;;;;;;11.32;7.55;;;25.10;48.80;;;;;;6164660;28;83603;-67
2021/05/16 10:52:55;;;;;;;9.20;8.23;;;25.10;48.50;;;;;;6178706;28;84084;-67
2021/05/16 10:55:59;;;;;;;11.25;7.22;;;25.10;48.50;;;;;;6174903;28;81519;-67
2021/05/16 10:59:00;;;;;;;8.15;6.78;;;25.10;49.40;;;;;;6176302;28;81394;-66
2021/05/16 11:02:00;;;;;;;8.40;6.55;;;25.10;49.70;;;;;;6176326;28;80524;-67
2021/05/16 11:05:01;;;;;;;7.75;6.20;;;25.10;49.60;;;;;;6179111;28;80905;-67
2021/05/16 11:08:01;;;;;;;10.65;7.15;;;25.10;48.80;;;;;;6170338;28;80502;-65
2021/05/16 11:11:02;;;;;;;9.45;6.53;;;25.10;49.40;;;;;;6175808;28;80971;-66
2021/05/16 11:14:02;;;;;;;7.70;5.50;;;25.10;49.40;;;;;;6171879;28;81658;-67
2021/05/16 11:17:03;;;;;;;7.57;5.07;;;25.10;48.40;;;;;;6175664;28;80848;-67
2021/05/16 11:20:03;;;;;;;7.95;5.32;;;25.10;48.20;;;;;;6177930;28;80431;-67
2021/05/16 11:23:04;;;;;;;7.22;5.18;;;25.00;48.00;;;;;;6177960;28;81451;-67
2021/05/16 11:26:04;;;;;;;8.43;5.63;;;25.00;48.60;;;;;;6174726;28;81573;-66
2021/05/16 11:29:05;;;;;;;10.38;5.05;;;25.00;47.90;;;;;;6176957;28;80355;-66
2021/05/16 11:32:06;;;;;;;6.22;4.70;;;25.00;48.70;;;;;;6174199;28;81497;-67
2021/05/16 11:35:06;;;;;;;5.25;3.92;;;25.10;48.50;;;;;;6178760;28;82381;-66
2021/05/16 11:38:07;;;;;;;7.57;4.57;;;25.00;48.30;;;;;;6171485;28;81345;-66
2021/05/16 11:41:07;;;;;;;4.80;3.63;;;25.00;48.70;;;;;;6179334;28;81091;-66
2021/05/16 11:44:08;;;;;;;5.80;3.28;;;25.00;48.60;;;;;;6174210;28;80775;-68
2021/05/16 11:47:08;;;;;;;5.55;3.47;;;25.10;48.60;;;;;;6177160;28;81017;-67
2021/05/16 11:50:09;;;;;;;6.00;3.88;;;25.10;48.60;;;;;;6172983;28;81655;-67
2021/05/16 11:53:09;;;;;;;4.25;3.22;;;25.10;48.80;;;;;;6177375;28;80867;-66
2021/05/16 11:56:10;;;;;;;4.97;3.50;;;25.10;49.40;;;;;;6177243;28;80385;-70
2021/05/16 11:59:11;;;;;;;5.90;3.25;;;25.10;49.40;;;;;;6176821;28;81492;-70
2021/05/16 12:02:11;;;;;;;4.90;3.17;;;25.10;49.30;;;;;;6164957;28;81544;-66
2021/05/16 12:05:12;;;;;;;4.05;2.70;;;25.10;49.60;;;;;;6171463;28;81378;-69
2021/05/16 12:08:12;;;;;;;4.50;2.67;;;25.10;49.20;;;;;;6177398;28;80291;-67
2021/05/16 12:11:16;;;;;;;5.45;2.53;;;25.10;49.00;;;;;;6174688;28;81588;-67
2021/05/16 12:14:16;;;;;;;4.47;2.35;;;25.10;48.80;;;;;;6178031;28;80570;-66
2021/05/16 12:17:17;;;;;;;5.05;2.20;;;25.10;48.50;;;;;;6176448;28;81043;-69
2021/05/16 12:20:17;;;;;;;4.47;2.67;;;25.10;48.40;;;;;;6176733;28;82253;-69
2021/05/16 12:23:18;;;;;;;2.33;1.90;;;25.10;48.20;;;;;;6171305;28;81792;-67
2021/05/16 12:26:18;;;;;;;6.47;2.10;;;25.10;48.00;;;;;;6173393;28;80497;-68
2021/05/16 12:29:19;;;;;;;4.00;1.80;;;25.10;47.80;;;;;;6169509;28;80155;-66
2021/05/16 12:32:19;;;;;;;5.45;1.60;;;25.10;47.30;;;;;;6172446;28;80627;-67
2021/05/16 12:35:21;;;;;;;12.07;3.38;;;25.10;47.20;;;;;;6178641;28;80539;-68
2021/05/16 12:38:21;;;;;;;4.65;1.60;;;25.10;47.20;;;;;;6177813;28;80225;-70
2021/05/16 12:41:22;;;;;;;2.15;1.23;;;25.10;46.90;;;;;;6172976;28;80862;-68
2021/05/16 12:44:23;;;;;;;6.65;2.00;;;25.10;46.10;;;;;;6168961;28;81492;-67
2021/05/16 12:47:24;;;;;;;2.78;2.03;;;25.10;46.80;;;;;;6177000;28;80906;-64
2021/05/16 12:51:18;;;;;;;5.53;2.78;;;25.10;46.40;;;;;;6220717;27;76013;-67
2021/05/16 12:54:18;;;;;;;18.67;9.93;;;25.10;47.90;;;;;;6176491;28;80476;-66
2021/05/16 12:57:23;;;;;;;18.30;9.82;;;25.10;51.00;;;;;;6188896;28;80383;-64
2021/05/16 13:00:23;;;;;;;23.90;14.88;;;25.10;50.00;;;;;;6185880;28;80207;-65
2021/05/16 13:03:24;;;;;;;26.45;13.63;;;25.10;51.40;;;;;;6168107;28;82722;-65
2021/05/16 13:06:24;;;;;;;20.00;10.32;;;25.10;51.30;;;;;;6188586;28;83955;-65
2021/05/16 13:09:25;;;;;;;35.75;16.63;;;25.20;50.70;;;;;;6195761;28;93399;-66
2021/05/16 13:12:25;;;;;;;41.33;17.33;;;25.20;53.30;;;;;;6181210;28;83160;-66
2021/05/16 13:15:26;;;;;;;18.40;10.35;;;25.20;53.30;;;;;;6173168;28;83517;-66
2021/05/16 13:18:26;;;;;;;20.40;10.48;;;25.20;51.60;;;;;;6175749;28;83743;-64
2021/05/16 13:21:27;;;;;;;21.50;10.68;;;25.20;51.20;;;;;;6189946;28;83358;-65
2021/05/16 13:24:28;;;;;;;20.20;8.90;;;25.20;51.80;;;;;;6181049;28;86545;-66
2021/05/16 13:27:28;;;;;;;14.38;9.25;;;25.30;50.80;;;;;;6190026;28;82171;-67
2021/05/16 13:30:29;;;;;;;30.63;10.88;;;25.20;50.80;;;;;;6199895;28;80776;-66
2021/05/16 13:33:30;;;;;;;22.98;10.02;;;25.30;53.90;;;;;;6196016;27;83000;-65
2021/05/16 13:36:30;;;;;;;70.45;24.05;;;25.30;52.30;;;;;;6178594;28;84748;-65
2021/05/16 13:39:31;;;;;;;580.08;206.15;;;25.30;51.40;;;;;;6195315;28;83526;-65
2021/05/16 13:42:31;;;;;;;668.03;257.27;;;25.30;55.90;;;;;;6179359;28;85652;-65
2021/05/16 13:45:32;;;;;;;631.85;235.60;;;25.30;52.50;;;;;;6186366;28;85815;-64
2021/05/16 13:48:33;;;;;;;659.95;250.45;;;25.20;50.00;;;;;;6191016;28;85687;-64
2021/05/16 13:51:33;;;;;;;493.88;166.50;;;25.10;49.50;;;;;;6196462;28;86854;-65
2021/05/16 13:54:34;;;;;;;376.65;125.72;;;25.10;49.20;;;;;;6171511;28;86528;-66
2021/05/16 13:57:34;;;;;;;269.00;92.60;;;25.10;48.60;;;;;;6185554;28;87073;-66
2021/05/16 14:00:35;;;;;;;235.90;77.57;;;25.10;48.00;;;;;;6173674;28;86673;-66
2021/05/16 14:03:35;;;;;;;187.48;59.50;;;25.10;47.70;;;;;;6171828;28;83496;-67
2021/05/16 14:06:36;;;;;;;150.52;50.55;;;25.10;47.60;;;;;;6183437;28;83377;-67
2021/05/16 14:09:36;;;;;;;120.50;41.00;;;25.10;47.20;;;;;;6184821;28;84680;-67
2021/05/16 14:12:37;;;;;;;103.05;32.63;;;24.90;47.10;;;;;;6182334;28;83504;-66
2021/05/16 14:15:37;;;;;;;85.72;29.95;;;24.90;46.80;;;;;;6170622;28;86282;-64
2021/05/16 14:18:38;;;;;;;77.68;23.30;;;24.90;47.20;;;;;;6171028;28;83192;-67
2021/05/16 14:21:38;;;;;;;67.57;25.17;;;24.90;47.40;;;;;;6181676;28;83265;-67
2021/05/16 14:24:39;;;;;;;57.65;18.38;;;24.90;47.80;;;;;;6174561;28;84004;-67
2021/05/16 14:27:40;;;;;;;44.65;16.10;;;24.90;46.80;;;;;;6168126;28;84062;-66
2021/05/16 14:30:45;;;;;;;36.83;13.18;;;24.80;46.50;;;;;;6177832;28;83035;-67
2021/05/16 14:33:45;;;;;;;32.23;12.17;;;24.80;46.80;;;;;;6179897;28;84306;-68
2021/05/16 14:36:46;;;;;;;34.88;11.52;;;24.80;46.60;;;;;;6173684;28;85420;-67
2021/05/16 14:39:46;;;;;;;31.10;11.15;;;24.70;46.30;;;;;;6177257;28;83246;-66
2021/05/16 14:42:47;;;;;;;31.80;13.05;;;24.70;46.50;;;;;;6177204;28;84306;-67
2021/05/16 14:45:47;;;;;;;30.52;9.88;;;24.80;46.50;;;;;;6179412;28;83159;-67
2021/05/16 14:48:48;;;;;;;25.23;9.93;;;24.70;46.00;;;;;;6177896;28;86129;-66
2021/05/16 14:51:49;;;;;;;26.88;9.38;;;24.70;45.80;;;;;;6180565;28;81031;-66
2021/05/16 14:54:49;;;;;;;25.80;8.13;;;24.70;45.70;;;;;;6163223;28;80349;-66
2021/05/16 14:57:50;;;;;;;17.08;7.60;;;24.70;45.30;;;;;;6172099;28;82669;-64
2021/05/16 15:00:51;;;;;;;18.75;7.93;;;24.70;45.20;;;;;;6196962;28;80551;-64
2021/05/16 15:03:51;;;;;;;14.20;6.18;;;24.70;45.30;;;;;;6177156;28;81512;-67
2021/05/16 15:06:52;;;;;;;16.70;6.18;;;24.70;45.20;;;;;;6178109;28;80642;-66
2021/05/16 15:09:52;;;;;;;14.50;5.82;;;24.70;45.20;;;;;;6177189;28;80558;-67
2021/05/16 15:12:53;;;;;;;12.57;5.68;;;24.70;45.00;;;;;;6163515;28;81583;-69
2021/05/16 15:15:54;;;;;;;13.32;4.82;;;24.70;45.60;;;;;;6182247;28;81628;-67
2021/05/16 15:18:54;;;;;;;8.63;4.57;;;24.70;45.00;;;;;;6171909;28;80195;-70
2021/05/16 15:21:54;;;;;;;9.52;4.35;;;24.70;45.30;;;;;;6157834;28;81085;-69
2021/05/16 15:24:55;;;;;;;9.23;4.60;;;24.70;44.90;;;;;;6152956;28;80586;-69
2021/05/16 15:27:56;;;;;;;11.85;5.38;;;24.60;45.10;;;;;;6159579;28;80341;-68
2021/05/16 15:30:56;;;;;;;11.63;5.75;;;24.70;45.20;;;;;;6157549;28;80965;-68
2021/05/16 15:33:57;;;;;;;8.27;4.20;;;24.70;44.90;;;;;;6156983;28;80349;-68